createdAt,value
2022-10-11T00:00:37.992Z,1.90
2022-10-11T00:03:22.448Z,2.35
2022-10-11T00:06:06.577Z,2.55
2022-10-11T00:08:49.927Z,2.50
2022-10-11T00:11:32.818Z,2.28
2022-10-11T00:14:15.746Z,2.75
2022-10-11T00:16:58.773Z,3.90
2022-10-11T00:19:42.933Z,2.60
2022-10-11T00:22:25.854Z,2.83
2022-10-11T00:25:10.793Z,2.58
2022-10-11T00:27:53.692Z,2.15
2022-10-11T00:30:36.511Z,2.65
2022-10-11T00:33:19.461Z,2.72
2022-10-11T00:36:04.287Z,2.85
2022-10-11T00:38:47.911Z,2.85
2022-10-11T00:41:30.910Z,2.67
2022-10-11T00:44:17.203Z,2.63
2022-10-11T00:47:02.964Z,3.97
2022-10-11T00:49:49.128Z,3.90
2022-10-11T00:52:38.569Z,3.53
2022-10-11T00:55:23.183Z,2.97
2022-10-11T00:58:07.286Z,2.92
2022-10-11T01:00:50.683Z,3.10
2022-10-11T01:03:36.216Z,2.35
2022-10-11T01:06:19.184Z,2.15
2022-10-11T01:09:04.782Z,2.55
2022-10-11T01:11:49.006Z,2.70
2022-10-11T01:14:54.837Z,3.05
2022-10-11T01:17:47.530Z,2.50
2022-10-11T01:20:46.611Z,3.30
2022-10-11T01:24:08.682Z,2.72
2022-10-11T01:27:25.942Z,2.30
2022-10-11T01:30:20.331Z,2.88
2022-10-11T01:33:16.991Z,2.28
2022-10-11T01:36:08.442Z,2.60
2022-10-11T01:38:55.134Z,2.40
2022-10-11T01:41:40.848Z,2.20
2022-10-11T01:44:25.461Z,2.78
2022-10-11T01:47:09.718Z,3.33
2022-10-11T01:49:57.385Z,3.13
2022-10-11T01:52:44.935Z,2.90
2022-10-11T01:55:37.222Z,2.83
2022-10-11T01:58:38.150Z,3.33
2022-10-11T02:01:32.118Z,3.95
2022-10-11T02:04:21.488Z,3.17
2022-10-11T02:07:11.878Z,3.88
2022-10-11T02:10:01.415Z,3.42
2022-10-11T02:12:47.953Z,3.35
2022-10-11T02:15:33.913Z,2.67
2022-10-11T02:18:20.371Z,2.58
2022-10-11T02:21:08.690Z,2.85
2022-10-11T02:23:55.966Z,4.85
2022-10-11T02:26:44.759Z,3.72
2022-10-11T02:29:30.686Z,2.88
2022-10-11T02:32:15.428Z,2.78
2022-10-11T02:37:54.072Z,2.22
2022-10-11T02:40:40.722Z,3.10
2022-10-11T02:43:30.682Z,3.03
2022-10-11T02:46:17.561Z,3.00
2022-10-11T02:49:01.621Z,2.78
2022-10-11T02:51:44.879Z,2.47
2022-10-11T02:54:29.062Z,3.00
2022-10-11T02:57:11.981Z,3.08
2022-10-11T02:59:54.880Z,3.38
2022-10-11T03:02:37.875Z,2.50
2022-10-11T03:05:20.867Z,2.10
2022-10-11T03:08:03.782Z,1.98
2022-10-11T03:10:48.359Z,1.92
2022-10-11T03:13:31.243Z,2.42
2022-10-11T03:16:14.856Z,2.30
2022-10-11T03:18:57.968Z,2.97
2022-10-11T03:21:40.840Z,3.28
2022-10-11T03:24:23.815Z,2.72
2022-10-11T03:27:08.585Z,2.60
2022-10-11T03:32:34.084Z,1.80
2022-10-11T03:35:17.900Z,2.33
2022-10-11T03:38:00.767Z,2.80
2022-10-11T03:40:44.767Z,3.33
2022-10-11T03:43:29.033Z,2.70
2022-10-11T03:46:11.918Z,2.40
2022-10-11T03:48:54.884Z,2.10
2022-10-11T03:51:37.775Z,2.38
2022-10-11T03:54:20.648Z,2.63
2022-10-11T03:57:03.535Z,3.25
2022-10-11T03:59:48.098Z,2.38
2022-10-11T04:02:32.211Z,2.33
2022-10-11T04:05:16.750Z,2.50
2022-10-11T04:07:59.651Z,3.22
2022-10-11T04:10:42.817Z,2.95
2022-10-11T04:13:25.695Z,3.28
2022-10-11T04:16:09.973Z,4.53
2022-10-11T04:18:52.825Z,4.00
2022-10-11T04:21:35.647Z,3.80
2022-10-11T04:24:18.579Z,3.45
2022-10-11T04:27:01.469Z,3.53
2022-10-11T04:29:44.383Z,3.78
2022-10-11T04:32:28.791Z,3.85
2022-10-11T04:35:12.624Z,3.38
2022-10-11T04:37:55.499Z,3.60
2022-10-11T04:40:38.379Z,3.75
2022-10-11T04:43:21.600Z,4.15
2022-10-11T04:46:05.888Z,5.00
2022-10-11T04:48:50.448Z,3.40
2022-10-11T04:51:34.049Z,3.72
2022-10-11T04:54:17.088Z,3.47
2022-10-11T04:56:59.942Z,3.20
2022-10-11T04:59:45.496Z,3.25
2022-10-11T05:02:32.270Z,3.10
2022-10-11T05:05:17.632Z,2.95
2022-10-11T05:08:00.545Z,3.47
2022-10-11T05:10:43.642Z,3.20
2022-10-11T05:13:27.217Z,3.42
2022-10-11T05:16:11.445Z,3.60
2022-10-11T05:18:54.700Z,3.22
2022-10-11T05:21:38.905Z,2.67
2022-10-11T05:24:21.836Z,3.13
2022-10-11T05:27:04.843Z,3.50
2022-10-11T05:29:47.743Z,3.03
2022-10-11T05:32:30.587Z,3.65
2022-10-11T05:35:13.472Z,2.85
2022-10-11T05:37:57.664Z,3.33
2022-10-11T05:40:40.981Z,2.90
2022-10-11T05:43:24.022Z,3.05
2022-10-11T05:46:08.183Z,2.70
2022-10-11T05:48:51.380Z,2.92
2022-10-11T05:51:34.236Z,2.80
2022-10-11T05:54:18.500Z,3.03
2022-10-11T05:57:01.350Z,3.00
2022-10-11T05:59:44.280Z,3.03
2022-10-11T06:02:27.228Z,2.85
2022-10-11T06:05:10.731Z,2.58
2022-10-11T06:07:53.645Z,2.50
2022-10-11T06:10:38.863Z,3.15
2022-10-11T06:13:21.704Z,2.92
2022-10-11T06:16:05.282Z,2.55
2022-10-11T06:18:48.430Z,3.08
2022-10-11T06:21:32.906Z,2.55
2022-10-11T06:24:16.035Z,2.75
2022-10-11T06:27:00.495Z,3.53
2022-10-11T06:29:43.348Z,3.55
2022-10-11T06:32:26.178Z,3.30
2022-10-11T06:35:09.875Z,4.30
2022-10-11T06:37:52.755Z,3.28
2022-10-11T06:40:35.633Z,2.90
2022-10-11T06:43:20.188Z,3.67
2022-10-11T06:46:03.271Z,4.18
2022-10-11T06:48:47.650Z,3.97
2022-10-11T06:51:30.541Z,3.40
2022-10-11T06:54:13.479Z,2.95
2022-10-11T06:56:56.348Z,3.47
2022-10-11T06:59:40.636Z,3.10
2022-10-11T07:02:23.532Z,3.10
2022-10-11T07:05:07.127Z,2.75
2022-10-11T07:07:49.992Z,4.32
2022-10-11T07:10:32.905Z,4.25
2022-10-11T07:13:17.299Z,3.28
2022-10-11T07:16:04.153Z,2.85
2022-10-11T07:18:47.947Z,3.03
2022-10-11T07:21:32.212Z,2.78
2022-10-11T07:24:15.118Z,2.60
2022-10-11T07:26:58.055Z,2.90
2022-10-11T07:29:40.913Z,2.47
2022-10-11T07:32:25.175Z,2.35
2022-10-11T07:35:08.584Z,2.10
2022-10-11T07:37:51.514Z,2.40
2022-10-11T07:40:35.544Z,2.25
2022-10-11T07:43:18.530Z,2.73
2022-10-11T07:46:04.634Z,2.70
2022-10-11T07:48:50.136Z,2.53
2022-10-11T07:51:34.202Z,2.10
2022-10-11T07:54:17.070Z,2.55
2022-10-11T07:57:00.008Z,2.80
2022-10-11T07:59:47.833Z,2.85
2022-10-11T08:02:32.953Z,2.88
2022-10-11T08:05:17.618Z,3.22
2022-10-11T08:08:00.706Z,3.97
2022-10-11T08:10:43.797Z,5.03
2022-10-11T08:13:27.564Z,5.70
2022-10-11T08:16:12.265Z,5.65
2022-10-11T08:21:41.715Z,4.35
2022-10-11T08:24:43.485Z,3.42
2022-10-11T08:27:26.417Z,3.40
2022-10-11T08:30:10.749Z,4.15
2022-10-11T08:32:53.639Z,5.10
2022-10-11T08:35:37.438Z,4.40
2022-10-11T08:38:22.159Z,5.13
2022-10-11T08:41:23.683Z,3.90
2022-10-11T08:44:18.507Z,4.05
2022-10-11T08:47:04.346Z,3.70
2022-10-11T08:49:48.179Z,3.40
2022-10-11T08:52:36.863Z,3.50
2022-10-11T08:55:27.745Z,3.83
2022-10-11T08:58:14.928Z,3.28
2022-10-11T09:00:58.989Z,2.58
2022-10-11T09:03:43.661Z,2.50
2022-10-11T09:06:39.215Z,2.22
2022-10-11T09:09:35.957Z,2.80
2022-10-11T09:12:33.516Z,2.67
2022-10-11T09:15:30.649Z,3.20
2022-10-11T09:18:41.145Z,2.75
2022-10-11T09:21:33.570Z,3.85
2022-10-11T09:24:34.302Z,3.05
2022-10-11T09:27:33.255Z,2.67
2022-10-11T09:30:25.399Z,2.30
2022-10-11T09:33:17.711Z,2.30
2022-10-11T09:36:01.434Z,3.03
2022-10-11T09:38:51.897Z,3.03
2022-10-11T09:41:39.513Z,2.45
2022-10-11T09:44:26.483Z,3.00
2022-10-11T09:47:16.331Z,2.20
2022-10-11T09:50:03.006Z,3.00
2022-10-11T09:52:49.906Z,2.63
2022-10-11T09:55:36.318Z,3.42
2022-10-11T09:58:38.516Z,4.25
2022-10-11T10:01:28.263Z,4.13
2022-10-11T10:04:13.636Z,3.90
2022-10-11T10:07:12.873Z,3.38
2022-10-11T10:09:56.078Z,3.83
2022-10-11T10:12:39.006Z,3.33
2022-10-11T10:15:31.017Z,3.72
2022-10-11T10:18:22.163Z,3.78
2022-10-11T10:21:08.667Z,3.97
2022-10-11T10:23:55.361Z,3.90
2022-10-11T10:26:39.979Z,3.05
2022-10-11T10:29:22.790Z,3.80
2022-10-11T10:32:14.937Z,4.20
2022-10-11T10:35:07.745Z,5.13
2022-10-11T10:37:58.566Z,4.05
2022-10-11T10:40:44.694Z,4.57
2022-10-11T10:43:30.983Z,4.32
2022-10-11T10:46:27.056Z,4.00
2022-10-11T10:52:42.110Z,3.58
2022-10-11T10:55:29.829Z,2.47
2022-10-11T10:58:31.531Z,4.28
2022-10-11T11:01:20.230Z,4.55
2022-10-11T11:04:11.341Z,4.03
2022-10-11T11:06:59.766Z,3.47
2022-10-11T11:09:55.847Z,2.67
2022-10-11T11:12:47.823Z,3.90
2022-10-11T11:15:38.091Z,3.80
2022-10-11T11:18:29.923Z,3.40
2022-10-11T11:21:24.701Z,4.70
2022-10-11T11:24:18.325Z,4.65
2022-10-11T11:27:07.574Z,4.10
2022-10-11T11:29:57.364Z,3.45
2022-10-11T11:32:50.321Z,4.13
2022-10-11T11:35:37.959Z,3.72
2022-10-11T11:38:29.400Z,3.63
2022-10-11T11:41:18.183Z,3.85
2022-10-11T11:44:07.650Z,4.32
2022-10-11T11:46:57.855Z,3.58
2022-10-11T11:49:46.301Z,4.88
2022-10-11T11:52:34.739Z,4.82
2022-10-11T11:55:24.036Z,4.85
2022-10-11T11:58:18.379Z,4.03
2022-10-11T12:01:13.431Z,5.97
2022-10-11T12:07:04.199Z,5.18
2022-10-11T12:09:50.496Z,5.50
2022-10-11T12:12:36.242Z,4.55
2022-10-11T12:15:23.460Z,5.47
2022-10-11T12:18:16.506Z,5.30
2022-10-11T12:21:05.805Z,4.30
2022-10-11T12:23:49.647Z,3.47
2022-10-11T12:26:44.035Z,5.90
2022-10-11T12:29:46.708Z,3.47
2022-10-11T12:32:51.936Z,3.85
2022-10-11T12:36:07.379Z,3.88
2022-10-11T12:39:43.197Z,3.40
2022-10-11T12:42:31.745Z,3.13
2022-10-11T12:45:35.436Z,3.50
2022-10-11T12:48:45.348Z,2.97
2022-10-11T12:51:36.261Z,3.40
2022-10-11T12:54:44.601Z,3.47
2022-10-11T12:58:06.301Z,3.22
2022-10-11T13:01:24.990Z,3.05
2022-10-11T13:04:10.872Z,3.08
2022-10-11T13:07:01.095Z,3.65
2022-10-11T13:09:49.198Z,3.97
2022-10-11T13:12:38.443Z,6.32
2022-10-11T13:15:24.347Z,5.00
2022-10-11T13:18:07.149Z,5.90
2022-10-11T13:20:50.227Z,5.28
2022-10-11T13:23:39.863Z,4.78
2022-10-11T13:26:22.796Z,4.60
2022-10-11T13:29:16.093Z,5.22
2022-10-11T13:31:59.642Z,5.40
2022-10-11T13:34:45.552Z,9.52
2022-10-11T13:37:29.949Z,6.50
2022-10-11T13:40:18.714Z,4.97
2022-10-11T13:43:06.161Z,7.85
2022-10-11T13:45:49.733Z,14.70
2022-10-11T13:48:32.687Z,11.63
2022-10-11T13:51:27.666Z,7.75
2022-10-11T13:54:15.814Z,5.80
2022-10-11T13:57:05.139Z,6.88
2022-10-11T13:59:48.102Z,4.70
2022-10-11T14:02:35.578Z,4.43
2022-10-11T14:05:35.406Z,4.45
2022-10-11T14:08:25.720Z,4.07
2022-10-11T14:11:09.962Z,3.30
2022-10-11T14:13:54.207Z,3.28
2022-10-11T14:16:37.127Z,3.08
2022-10-11T14:19:21.656Z,2.75
2022-10-11T14:22:06.715Z,3.17
2022-10-11T14:24:49.707Z,3.17
2022-10-11T14:27:32.683Z,3.70
2022-10-11T14:30:25.530Z,3.22
2022-10-11T14:33:09.586Z,3.10
2022-10-11T14:35:52.891Z,3.10
2022-10-11T14:38:35.806Z,3.13
2022-10-11T14:41:18.986Z,2.78
2022-10-11T14:44:01.875Z,2.70
2022-10-11T14:46:47.920Z,3.03
2022-10-11T14:49:33.670Z,3.10
2022-10-11T14:52:16.555Z,2.25
2022-10-11T14:54:59.439Z,2.22
2022-10-11T14:57:42.310Z,2.90
2022-10-11T15:00:28.683Z,3.33
2022-10-11T15:03:13.898Z,2.72
2022-10-11T15:05:56.910Z,2.17
2022-10-11T15:08:39.768Z,2.92
2022-10-11T15:11:23.730Z,3.63
2022-10-11T15:14:07.444Z,4.67
2022-10-11T15:16:50.419Z,3.97
2022-10-11T15:19:34.615Z,4.78
2022-10-11T15:22:17.522Z,5.32
2022-10-11T15:25:00.793Z,5.10
2022-10-11T15:27:43.861Z,6.22
2022-10-11T15:30:29.673Z,6.65
2022-10-11T15:33:12.557Z,6.60
2022-10-11T15:35:56.809Z,6.10
2022-10-11T15:38:39.979Z,6.07
2022-10-11T15:41:23.940Z,5.78
2022-10-11T15:44:06.789Z,5.13
2022-10-11T15:46:49.717Z,5.25
2022-10-11T15:49:32.589Z,4.47
2022-10-11T15:52:16.834Z,5.45
2022-10-11T15:54:59.708Z,5.18
2022-10-11T15:57:42.614Z,5.15
2022-10-11T16:00:26.361Z,5.00
2022-10-11T16:03:11.857Z,4.53
2022-10-11T16:05:55.440Z,3.40
2022-10-11T16:08:40.210Z,3.72
2022-10-11T16:14:06.071Z,3.20
2022-10-11T16:16:49.035Z,3.17
2022-10-11T16:19:31.960Z,3.22
2022-10-11T16:22:14.949Z,3.30
2022-10-11T16:24:59.186Z,3.60
2022-10-11T16:27:42.107Z,3.30
2022-10-11T16:30:25.394Z,3.30
2022-10-11T16:33:08.253Z,3.97
2022-10-11T16:35:51.191Z,3.58
2022-10-11T16:38:34.101Z,3.35
2022-10-11T16:41:18.333Z,3.28
2022-10-11T16:44:01.235Z,3.47
2022-10-11T16:46:47.713Z,3.50
2022-10-11T16:49:30.633Z,3.13
2022-10-11T16:52:14.162Z,3.95
2022-10-11T16:54:57.094Z,3.60
2022-10-11T16:57:41.314Z,4.13
2022-10-11T17:00:24.217Z,3.80
2022-10-11T17:03:08.007Z,3.47
2022-10-11T17:05:51.698Z,4.15
2022-10-11T17:08:35.337Z,3.92
2022-10-11T17:11:18.625Z,4.05
2022-10-11T17:14:03.473Z,3.97
2022-10-11T17:16:46.623Z,4.03
2022-10-11T17:19:29.537Z,4.25
2022-10-11T17:22:13.751Z,4.03
2022-10-11T17:24:56.601Z,4.13
2022-10-11T17:27:39.554Z,4.05
2022-10-11T17:30:24.392Z,4.10
2022-10-11T17:35:49.920Z,3.35
2022-10-11T17:38:32.811Z,4.30
2022-10-11T17:41:15.759Z,4.45
2022-10-11T17:43:59.337Z,4.30
2022-10-11T17:46:44.140Z,4.05
2022-10-11T17:49:27.081Z,4.82
2022-10-11T17:52:10.346Z,3.95
2022-10-11T17:54:53.226Z,4.45
2022-10-11T17:57:36.772Z,5.57
2022-10-11T18:00:19.755Z,5.07
2022-10-11T18:03:04.495Z,5.40
2022-10-11T18:08:30.027Z,3.60
2022-10-11T18:11:14.846Z,4.40
2022-10-11T18:16:41.010Z,3.67
2022-10-11T18:19:25.759Z,3.70
2022-10-11T18:22:08.630Z,3.83
2022-10-11T18:24:51.542Z,4.35
2022-10-11T18:27:34.412Z,4.40
2022-10-11T18:30:17.442Z,5.32
2022-10-11T18:33:00.409Z,4.47
2022-10-11T18:35:44.735Z,4.75
2022-10-11T18:38:27.571Z,4.07
2022-10-11T18:41:12.371Z,4.20
2022-10-11T18:46:39.758Z,4.43
2022-10-11T18:49:22.683Z,4.63
2022-10-11T18:52:07.967Z,4.43
2022-10-11T18:54:50.913Z,4.45
2022-10-11T18:57:34.874Z,4.18
2022-10-11T19:00:39.594Z,4.90
2022-10-11T19:03:22.759Z,4.40
2022-10-11T19:06:06.989Z,4.20
2022-10-11T19:08:53.322Z,4.40
2022-10-11T19:11:36.496Z,4.20
2022-10-11T19:14:21.657Z,4.20
2022-10-11T19:17:04.750Z,4.60
2022-10-11T19:19:49.995Z,4.53
2022-10-11T19:22:32.884Z,4.57
2022-10-11T19:25:17.249Z,4.65
2022-10-11T19:28:00.173Z,4.30
2022-10-11T19:30:42.997Z,4.55
2022-10-11T19:33:25.866Z,4.45
2022-10-11T19:36:09.940Z,4.70
2022-10-11T19:38:56.480Z,4.28
2022-10-11T19:41:41.196Z,4.43
2022-10-11T19:47:06.887Z,3.83
2022-10-11T19:49:49.740Z,4.25
2022-10-11T19:52:32.873Z,4.55
2022-10-11T19:55:16.268Z,3.75
2022-10-11T19:58:04.546Z,3.80
2022-10-11T20:00:59.733Z,3.70
2022-10-11T20:03:42.936Z,3.08
2022-10-11T20:06:28.512Z,3.05
2022-10-11T20:12:14.940Z,3.40
2022-10-11T20:14:59.179Z,2.85
2022-10-11T20:17:51.685Z,3.20
2022-10-11T20:20:34.551Z,2.92
2022-10-11T20:23:18.263Z,2.85
2022-10-11T20:26:03.122Z,2.60
2022-10-11T20:28:46.251Z,2.55
2022-10-11T20:31:32.177Z,2.67
2022-10-11T20:34:15.066Z,2.60
2022-10-11T20:36:57.910Z,2.50
2022-10-11T20:39:40.804Z,2.53
2022-10-11T20:42:28.936Z,2.38
2022-10-11T20:45:12.626Z,2.70
2022-10-11T20:47:56.858Z,3.42
2022-10-11T20:50:39.839Z,2.42
2022-10-11T20:53:23.459Z,2.90
2022-10-11T20:56:08.735Z,2.63
2022-10-11T20:58:53.188Z,2.60
2022-10-11T21:01:38.370Z,2.78
2022-10-11T21:04:22.620Z,2.40
2022-10-11T21:07:05.498Z,2.53
2022-10-11T21:09:48.439Z,2.50
2022-10-11T21:12:31.625Z,2.38
2022-10-11T21:15:14.871Z,2.63
2022-10-11T21:17:58.083Z,2.63
2022-10-11T21:20:43.198Z,2.40
2022-10-11T21:23:26.086Z,2.33
2022-10-11T21:26:10.669Z,2.05
2022-10-11T21:28:53.576Z,2.17
2022-10-11T21:31:37.119Z,2.05
2022-10-11T21:34:20.010Z,3.00
2022-10-11T21:37:04.269Z,2.20
2022-10-11T21:39:47.094Z,2.13
2022-10-11T21:42:29.969Z,2.33
2022-10-11T21:45:12.913Z,2.25
2022-10-11T21:47:55.709Z,2.15
2022-10-11T21:50:38.577Z,2.28
2022-10-11T21:53:22.845Z,2.17
2022-10-11T21:56:05.960Z,2.60
2022-10-11T21:58:49.485Z,2.10
2022-10-11T22:01:32.482Z,2.33
2022-10-11T22:04:15.453Z,2.17
2022-10-11T22:06:58.555Z,2.22
2022-10-11T22:09:42.795Z,2.42
2022-10-11T22:12:25.647Z,2.92
2022-10-11T22:15:09.448Z,2.30
2022-10-11T22:17:52.772Z,2.00
2022-10-11T22:20:35.705Z,2.00
2022-10-11T22:23:19.030Z,2.03
2022-10-11T22:26:08.689Z,1.92
2022-10-11T22:28:51.732Z,2.40
2022-10-11T22:31:36.241Z,2.22
2022-10-11T22:34:19.158Z,1.90
2022-10-11T22:37:01.975Z,2.35
2022-10-11T22:39:44.858Z,2.40
2022-10-11T22:42:30.268Z,2.60
2022-10-11T22:45:13.145Z,2.35
2022-10-11T22:47:55.990Z,2.53
2022-10-11T22:50:38.931Z,2.42
2022-10-11T22:53:21.917Z,2.95
2022-10-11T22:56:04.997Z,2.42
2022-10-11T22:58:49.286Z,2.40
2022-10-11T23:01:32.250Z,2.25
2022-10-11T23:04:17.633Z,2.63
2022-10-11T23:07:04.819Z,2.42
2022-10-11T23:09:48.029Z,2.20
2022-10-11T23:12:31.108Z,2.88
2022-10-11T23:15:15.949Z,2.80
2022-10-11T23:17:58.860Z,2.50
2022-10-11T23:20:41.737Z,2.92
2022-10-11T23:23:24.670Z,2.90
2022-10-11T23:26:09.847Z,2.40
2022-10-11T23:28:55.278Z,2.38
2022-10-11T23:31:39.519Z,2.45
2022-10-11T23:34:22.413Z,2.20
2022-10-11T23:37:05.949Z,2.58
2022-10-11T23:39:48.790Z,2.78
2022-10-11T23:42:31.763Z,2.70
2022-10-11T23:45:14.739Z,2.50
2022-10-11T23:47:58.950Z,2.90
2022-10-11T23:50:41.831Z,3.22
2022-10-11T23:53:24.785Z,3.10
2022-10-11T23:56:08.774Z,2.85
2022-10-11T23:58:51.658Z,2.90
